createdAt,value
2023-08-12T00:01:28.735Z,101314.34
2023-08-12T00:04:19.732Z,101303.53
2023-08-12T00:07:11.902Z,101313.44
2023-08-12T00:09:57.145Z,101316.91
2023-08-12T00:12:49.707Z,101320.03
2023-08-12T00:15:35.354Z,101314.47
2023-08-12T00:18:26.702Z,101321.03
2023-08-12T00:21:17.695Z,101314.69
2023-08-12T00:24:08.698Z,101301.66
2023-08-12T00:26:53.614Z,101316.34
2023-08-12T00:29:44.686Z,101318.69
2023-08-12T00:32:29.705Z,101316.59
2023-08-12T00:35:20.724Z,101304.16
2023-08-12T00:38:05.922Z,101303.63
2023-08-12T00:40:57.702Z,101308.69
2023-08-12T00:43:48.700Z,101292.81
2023-08-12T00:46:35.009Z,101288.56
2023-08-12T00:49:26.693Z,101294.38
2023-08-12T00:52:16.361Z,101295.13
2023-08-12T00:55:07.702Z,101281.97
2023-08-12T00:57:52.756Z,101284.28
2023-08-12T01:00:44.744Z,101277.63
2023-08-12T01:03:44.831Z,101282.28
2023-08-12T01:06:29.877Z,101286.34
2023-08-12T01:09:22.707Z,101274.47
2023-08-12T01:12:16.101Z,101256.78
2023-08-12T01:15:23.714Z,101252.00
2023-08-12T01:18:09.153Z,101245.28
2023-08-12T01:21:00.715Z,101244.34
2023-08-12T01:23:46.012Z,101251.72
2023-08-12T01:26:37.715Z,101242.44
2023-08-12T01:29:29.705Z,101242.31
2023-08-12T01:32:35.744Z,101240.38
2023-08-12T01:35:32.729Z,101227.50
2023-08-12T01:38:26.740Z,101235.44
2023-08-12T01:41:14.384Z,101221.63
2023-08-12T01:44:05.735Z,101230.06
2023-08-12T01:46:51.183Z,101227.56
2023-08-12T01:49:42.757Z,101215.88
2023-08-12T01:52:27.854Z,101209.38
2023-08-12T01:55:19.718Z,101220.22
2023-08-12T01:58:05.020Z,101207.50
2023-08-12T02:00:56.733Z,101214.25
2023-08-12T02:03:48.897Z,101209.19
2023-08-12T02:06:40.742Z,101219.47
2023-08-12T02:09:26.095Z,101219.47
2023-08-12T02:12:17.742Z,101222.78
2023-08-12T02:15:03.020Z,101212.56
2023-08-12T02:17:54.769Z,101213.72
2023-08-12T02:20:48.729Z,101206.63
2023-08-12T02:23:33.698Z,101217.50
2023-08-12T02:26:25.757Z,101206.75
2023-08-12T02:29:11.143Z,101207.84
2023-08-12T02:32:02.749Z,101209.72
2023-08-12T02:34:47.715Z,101202.03
2023-08-12T02:37:39.752Z,101205.59
2023-08-12T02:40:25.001Z,101210.81
2023-08-12T02:43:17.750Z,101200.78
2023-08-12T02:46:09.810Z,101202.38
2023-08-12T02:48:54.543Z,101199.59
2023-08-12T02:51:45.765Z,101197.69
2023-08-12T02:54:30.721Z,101188.44
2023-08-12T02:57:21.775Z,101203.63
2023-08-12T03:00:08.732Z,101196.38
2023-08-12T03:03:06.872Z,101192.25
2023-08-12T03:06:04.758Z,101185.75
2023-08-12T03:08:56.772Z,101182.63
2023-08-12T03:11:41.821Z,101177.84
2023-08-12T03:14:33.789Z,101170.81
2023-08-12T03:17:18.671Z,101162.91
2023-08-12T03:20:12.752Z,101169.56
2023-08-12T03:23:03.775Z,101160.34
2023-08-12T03:25:49.338Z,101158.78
2023-08-12T03:28:40.769Z,101147.53
2023-08-12T03:31:25.863Z,101152.03
2023-08-12T03:34:16.780Z,101142.69
2023-08-12T03:37:08.864Z,101148.94
2023-08-12T03:40:00.801Z,101139.00
2023-08-12T03:42:46.044Z,101142.19
2023-08-12T03:45:37.758Z,101126.66
2023-08-12T03:48:22.789Z,101126.91
2023-08-12T03:51:13.767Z,101123.19
2023-08-12T03:53:59.264Z,101117.91
2023-08-12T03:56:50.790Z,101118.75
2023-08-12T03:59:42.827Z,101119.19
2023-08-12T04:02:47.843Z,101112.19
2023-08-12T04:05:39.772Z,101110.25
2023-08-12T04:08:31.786Z,101116.50
2023-08-12T04:11:23.773Z,101103.47
2023-08-12T04:14:15.789Z,101099.34
2023-08-12T04:17:07.800Z,101104.53
2023-08-12T04:19:53.019Z,101111.63
2023-08-12T04:22:46.988Z,101109.75
2023-08-12T04:25:39.796Z,101106.00
2023-08-12T04:28:30.807Z,101110.50
2023-08-12T04:31:15.714Z,101112.34
2023-08-12T04:34:06.803Z,101094.69
2023-08-12T04:36:57.799Z,101087.59
2023-08-12T04:39:43.542Z,101083.63
2023-08-12T04:42:34.826Z,101084.06
2023-08-12T04:45:19.769Z,101079.09
2023-08-12T04:48:11.853Z,101076.28
2023-08-12T04:51:07.794Z,101067.22
2023-08-12T04:53:52.946Z,101067.09
2023-08-12T04:56:44.817Z,101065.09
2023-08-12T04:59:29.673Z,101066.19
2023-08-12T05:02:21.144Z,101062.66
2023-08-12T05:05:13.956Z,101062.63
2023-08-12T05:08:04.814Z,101061.69
2023-08-12T05:10:56.897Z,101062.44
2023-08-12T05:13:41.654Z,101065.66
2023-08-12T05:16:32.871Z,101061.69
2023-08-12T05:19:32.857Z,101069.09
2023-08-12T05:22:30.815Z,101068.34
2023-08-12T05:25:22.821Z,101073.31
2023-08-12T05:28:14.832Z,101079.19
2023-08-12T05:31:06.830Z,101082.66
2023-08-12T05:33:51.970Z,101087.06
2023-08-12T05:36:43.807Z,101081.38
2023-08-12T05:39:28.993Z,101094.19
2023-08-12T05:42:20.814Z,101100.16
2023-08-12T05:45:08.593Z,101108.25
2023-08-12T05:48:00.839Z,101113.88
2023-08-12T05:50:52.838Z,101107.66
2023-08-12T05:53:44.839Z,101105.81
2023-08-12T05:56:29.817Z,101102.94
2023-08-12T05:59:20.824Z,101114.25
2023-08-12T06:02:14.132Z,101113.81
2023-08-12T06:05:05.880Z,101117.91
2023-08-12T06:07:56.829Z,101105.13
2023-08-12T06:10:48.846Z,101098.41
2023-08-12T06:13:33.703Z,101094.03
2023-08-12T06:16:24.905Z,101091.59
2023-08-12T06:19:09.901Z,101110.91
2023-08-12T06:22:00.828Z,101103.03
2023-08-12T06:24:45.852Z,101091.19
2023-08-12T06:27:37.832Z,101093.47
2023-08-12T06:30:29.844Z,101080.59
2023-08-12T06:33:16.121Z,101059.72
2023-08-12T06:36:07.847Z,101044.63
2023-08-12T06:38:59.842Z,101037.31
2023-08-12T06:41:51.826Z,101047.50
2023-08-12T06:44:42.866Z,101061.31
2023-08-12T06:47:34.887Z,101061.28
2023-08-12T06:50:25.849Z,101056.69
2023-08-12T06:53:17.837Z,101033.41
2023-08-12T06:56:02.929Z,101031.97
2023-08-12T06:58:53.853Z,101016.88
2023-08-12T07:01:39.014Z,101011.97
2023-08-12T07:04:36.888Z,101001.19
2023-08-12T07:07:22.035Z,101023.72
2023-08-12T07:10:13.877Z,101021.03
2023-08-12T07:12:58.851Z,101018.13
2023-08-12T07:15:49.935Z,101024.66
2023-08-12T07:18:35.110Z,101039.81
2023-08-12T07:21:26.934Z,101043.88
2023-08-12T07:24:12.160Z,101026.56
2023-08-12T07:27:05.511Z,101025.06
2023-08-12T07:29:58.866Z,101032.50
2023-08-12T07:32:50.898Z,101026.09
2023-08-12T07:35:41.883Z,101009.75
2023-08-12T07:38:33.862Z,101014.78
2023-08-12T07:41:25.878Z,101001.03
2023-08-12T07:44:11.076Z,100999.38
2023-08-12T07:47:02.905Z,100998.44
2023-08-12T07:49:48.169Z,101003.72
2023-08-12T07:52:39.874Z,101014.91
2023-08-12T07:55:27.286Z,101021.53
2023-08-12T07:58:18.868Z,101019.03
2023-08-12T08:01:11.896Z,101020.25
2023-08-12T08:04:03.930Z,101020.06
2023-08-12T08:07:01.892Z,101007.59
2023-08-12T08:09:47.054Z,100986.16
2023-08-12T08:12:38.883Z,100984.94
2023-08-12T08:15:23.942Z,100980.03
2023-08-12T08:18:15.939Z,100958.81
2023-08-12T08:21:05.496Z,100976.88
2023-08-12T08:23:57.912Z,100983.34
2023-08-12T08:26:43.118Z,100984.53
2023-08-12T08:29:34.892Z,100997.28
2023-08-12T08:32:20.003Z,100998.44
2023-08-12T08:35:11.926Z,101000.44
2023-08-12T08:38:03.883Z,101000.34
2023-08-12T08:40:58.891Z,101005.97
2023-08-12T08:43:47.494Z,100986.75
2023-08-12T08:46:39.045Z,100995.59
2023-08-12T08:49:25.056Z,100975.00
2023-08-12T08:52:15.882Z,100989.56
2023-08-12T08:55:08.578Z,101002.44
2023-08-12T08:58:01.098Z,101004.03
2023-08-12T09:00:53.907Z,101001.66
2023-08-12T09:03:45.945Z,101004.19
2023-08-12T09:06:43.902Z,101024.06
2023-08-12T09:09:29.209Z,101020.94
2023-08-12T09:12:22.942Z,100986.75
2023-08-12T09:15:14.912Z,100963.44
2023-08-12T09:18:00.095Z,100984.38
2023-08-12T09:20:51.915Z,100977.81
2023-08-12T09:23:45.912Z,100973.03
2023-08-12T09:26:31.083Z,100954.44
2023-08-12T09:29:22.908Z,100957.41
2023-08-12T09:32:19.932Z,100945.25
2023-08-12T09:35:06.908Z,100960.66
2023-08-12T09:37:58.937Z,100953.56
2023-08-12T09:40:51.935Z,100947.06
2023-08-12T09:43:42.797Z,100947.44
2023-08-12T09:46:34.922Z,100959.75
2023-08-12T09:49:26.932Z,100955.63
2023-08-12T09:52:12.760Z,100966.38
2023-08-12T09:55:04.922Z,100976.59
2023-08-12T09:57:54.745Z,101000.94
2023-08-12T10:00:48.946Z,100999.94
2023-08-12T10:03:47.953Z,100996.31
2023-08-12T10:06:39.288Z,100995.47
2023-08-12T10:09:31.929Z,101007.38
2023-08-12T10:12:24.940Z,101015.50
2023-08-12T10:15:10.887Z,101016.78
2023-08-12T10:18:03.979Z,101001.16
2023-08-12T10:20:49.267Z,100993.19
2023-08-12T10:23:40.947Z,100971.03
2023-08-12T10:26:26.613Z,100956.19
2023-08-12T10:29:18.935Z,100961.22
2023-08-12T10:32:04.256Z,100972.47
2023-08-12T10:35:02.951Z,100955.88
2023-08-12T10:37:57.941Z,100960.13
2023-08-12T10:40:43.450Z,100942.41
2023-08-12T10:43:34.961Z,100948.56
2023-08-12T10:46:38.600Z,100947.50
2023-08-12T10:49:30.942Z,100948.31
2023-08-12T10:52:39.948Z,100949.63
2023-08-12T10:55:34.947Z,100959.13
2023-08-12T10:58:47.960Z,100950.41
2023-08-12T11:01:38.947Z,100966.53
2023-08-12T11:04:32.005Z,100962.22
2023-08-12T11:07:44.980Z,100951.50
2023-08-12T11:10:41.972Z,100944.66
2023-08-12T11:13:30.343Z,100932.69
2023-08-12T11:16:21.998Z,100923.72
2023-08-12T11:19:07.044Z,100918.91
2023-08-12T11:21:59.955Z,100920.78
2023-08-12T11:24:45.098Z,100928.34
2023-08-12T11:27:43.971Z,100926.16
2023-08-12T11:30:31.184Z,100918.47
2023-08-12T11:33:25.971Z,100911.13
2023-08-12T11:36:11.274Z,100901.09
2023-08-12T11:39:03.970Z,100902.56
2023-08-12T11:41:49.269Z,100911.34
2023-08-12T11:44:40.975Z,100906.59
2023-08-12T11:47:31.970Z,100895.28
2023-08-12T11:50:23.004Z,100892.34
2023-08-12T11:53:13.972Z,100904.72
2023-08-12T11:56:06.015Z,100896.34
2023-08-12T11:58:57.980Z,100896.91
2023-08-12T12:01:56.052Z,100894.25
2023-08-12T12:04:49.030Z,100884.72
2023-08-12T12:07:47.005Z,100880.53
2023-08-12T12:10:40.978Z,100884.13
2023-08-12T12:13:26.705Z,100886.09
2023-08-12T12:16:19.045Z,100878.22
2023-08-12T12:19:12.991Z,100877.84
2023-08-12T12:22:05.042Z,100892.91
2023-08-12T12:24:50.183Z,100887.81
2023-08-12T12:27:41.999Z,100886.63
2023-08-12T12:30:27.174Z,100889.19
2023-08-12T12:33:18.976Z,100890.47
2023-08-12T12:36:05.646Z,100906.31
2023-08-12T12:38:56.990Z,100900.09
2023-08-12T12:41:42.350Z,100910.50
2023-08-12T12:44:33.997Z,100911.81
2023-08-12T12:47:20.132Z,100911.44
2023-08-12T12:50:12.041Z,100911.09
2023-08-12T12:52:56.929Z,100909.16
2023-08-12T12:55:49.021Z,100903.34
2023-08-12T12:58:35.686Z,100902.63
2023-08-12T13:01:27.071Z,100903.53
2023-08-12T13:04:18.138Z,100895.44
2023-08-12T13:07:10.018Z,100900.91
2023-08-12T13:09:55.230Z,100912.16
2023-08-12T13:12:47.039Z,100919.88
2023-08-12T13:15:39.043Z,100930.84
2023-08-12T13:18:31.004Z,100932.22
2023-08-12T13:21:22.052Z,100948.66
2023-08-12T13:24:07.086Z,100948.16
2023-08-12T13:27:00.510Z,100954.84
2023-08-12T13:29:45.560Z,100936.19
2023-08-12T13:32:37.065Z,100962.75
2023-08-12T13:35:22.730Z,100966.31
2023-08-12T13:38:14.007Z,100966.78
2023-08-12T13:40:59.180Z,100990.66
2023-08-12T13:43:51.029Z,100987.34
2023-08-12T13:46:36.260Z,100978.88
2023-08-12T13:49:28.047Z,100984.03
2023-08-12T13:52:15.878Z,100974.03
2023-08-12T13:55:08.032Z,100978.03
2023-08-12T13:58:00.031Z,100973.00
2023-08-12T14:00:44.876Z,100967.78
2023-08-12T14:03:37.035Z,100957.34
2023-08-12T14:06:36.075Z,100960.88
2023-08-12T14:09:28.025Z,100966.94
2023-08-12T14:12:13.010Z,100951.75
2023-08-12T14:15:05.034Z,100957.00
2023-08-12T14:17:50.040Z,100959.00
2023-08-12T14:20:42.035Z,100955.19
2023-08-12T14:23:27.134Z,100964.84
2023-08-12T14:26:18.047Z,100950.78
2023-08-12T14:29:10.042Z,100950.94
2023-08-12T14:32:01.062Z,100956.69
2023-08-12T14:34:48.938Z,100962.78
2023-08-12T14:37:40.088Z,100962.84
2023-08-12T14:40:32.056Z,100963.75
2023-08-12T14:43:17.121Z,100953.97
2023-08-12T14:46:09.087Z,100966.22
2023-08-12T14:48:54.982Z,100957.28
2023-08-12T14:51:46.072Z,100959.66
2023-08-12T14:54:31.164Z,100950.19
2023-08-12T14:57:23.061Z,100959.66
2023-08-12T15:00:11.428Z,100955.69
2023-08-12T15:03:03.184Z,100966.06
2023-08-12T15:05:55.134Z,100955.63
2023-08-12T15:08:47.103Z,100943.56
2023-08-12T15:11:31.965Z,100943.91
2023-08-12T15:14:25.066Z,100937.81
2023-08-12T15:17:10.100Z,100948.50
2023-08-12T15:20:02.072Z,100947.19
2023-08-12T15:22:46.930Z,100946.84
2023-08-12T15:25:39.069Z,100952.81
2023-08-12T15:28:24.229Z,100944.97
2023-08-12T15:31:16.149Z,100951.63
2023-08-12T15:34:01.034Z,100944.69
2023-08-12T15:36:52.083Z,100948.22
2023-08-12T15:39:37.292Z,100955.47
2023-08-12T15:42:29.073Z,100951.19
2023-08-12T15:45:14.208Z,100953.22
2023-08-12T15:48:06.125Z,100945.22
2023-08-12T15:50:51.717Z,100941.69
2023-08-12T15:53:43.068Z,100935.09
2023-08-12T15:56:36.061Z,100939.03
2023-08-12T15:59:22.509Z,100931.56
2023-08-12T16:02:15.277Z,100937.88
2023-08-12T16:05:21.085Z,100941.91
2023-08-12T16:08:13.083Z,100941.75
2023-08-12T16:11:05.085Z,100938.38
2023-08-12T16:13:50.413Z,100938.22
2023-08-12T16:16:42.108Z,100945.38
2023-08-12T16:19:28.918Z,100954.09
2023-08-12T16:22:22.100Z,100948.97
2023-08-12T16:25:08.095Z,100949.94
2023-08-12T16:28:00.104Z,100954.81
2023-08-12T16:30:45.194Z,100956.84
2023-08-12T16:33:37.087Z,100945.28
2023-08-12T16:36:21.975Z,100944.31
2023-08-12T16:39:16.094Z,100943.22
2023-08-12T16:42:01.397Z,100950.50
2023-08-12T16:44:53.095Z,100951.41
2023-08-12T16:47:45.162Z,100958.88
2023-08-12T16:50:37.101Z,100960.13
2023-08-12T16:53:21.946Z,100960.66
2023-08-12T16:56:14.119Z,100961.06
2023-08-12T16:59:06.097Z,100963.31
2023-08-12T17:01:51.279Z,100968.00
2023-08-12T17:04:43.113Z,100959.63
2023-08-12T17:07:35.121Z,100970.78
2023-08-12T17:10:20.263Z,100974.34
2023-08-12T17:13:12.110Z,100972.00
2023-08-12T17:15:57.500Z,100977.28
2023-08-12T17:18:49.107Z,100977.94
2023-08-12T17:21:34.506Z,100982.41
2023-08-12T17:24:26.113Z,100983.03
2023-08-12T17:27:11.019Z,100986.78
2023-08-12T17:30:03.134Z,100989.00
2023-08-12T17:32:48.238Z,100995.25
2023-08-12T17:35:39.133Z,100995.72
2023-08-12T17:38:23.968Z,101003.72
2023-08-12T17:41:15.140Z,101006.31
2023-08-12T17:44:06.131Z,101003.84
2023-08-12T17:46:51.222Z,101009.59
2023-08-12T17:49:43.128Z,101006.69
2023-08-12T17:52:34.113Z,101008.19
2023-08-12T17:55:19.693Z,101018.53
2023-08-12T17:58:12.119Z,101011.16
2023-08-12T18:00:57.339Z,101012.06
2023-08-12T18:03:49.185Z,101018.19
2023-08-12T18:06:40.454Z,101017.72
2023-08-12T18:09:32.125Z,101014.66
2023-08-12T18:12:24.156Z,101021.22
2023-08-12T18:15:15.141Z,101025.72
2023-08-12T18:18:07.228Z,101027.50
2023-08-12T18:20:59.151Z,101032.28
2023-08-12T18:23:44.046Z,101033.41
2023-08-12T18:26:35.143Z,101039.88
2023-08-12T18:29:20.296Z,101036.59
2023-08-12T18:32:12.541Z,101040.34
2023-08-12T18:35:04.152Z,101040.09
2023-08-12T18:37:55.150Z,101038.69
2023-08-12T18:40:46.152Z,101045.31
2023-08-12T18:43:31.066Z,101049.63
2023-08-12T18:46:22.204Z,101066.13
2023-08-12T18:49:14.158Z,101071.09
2023-08-12T18:51:59.228Z,101059.22
2023-08-12T18:54:51.153Z,101067.41
2023-08-12T18:57:36.458Z,101069.97
2023-08-12T19:00:28.166Z,101072.81
2023-08-12T19:03:13.203Z,101076.16
2023-08-12T19:06:13.170Z,101083.41
2023-08-12T19:08:59.141Z,101085.94
2023-08-12T19:11:52.165Z,101094.44
2023-08-12T19:14:37.323Z,101101.81
2023-08-12T19:17:29.223Z,101106.16
2023-08-12T19:20:14.395Z,101103.50
2023-08-12T19:23:06.161Z,101105.22
2023-08-12T19:26:00.166Z,101107.16
2023-08-12T19:28:45.643Z,101121.94
2023-08-12T19:31:38.194Z,101122.19
2023-08-12T19:34:32.625Z,101122.03
2023-08-12T19:37:26.189Z,101128.06
2023-08-12T19:40:12.399Z,101130.56
2023-08-12T19:43:04.167Z,101131.84
2023-08-12T19:45:55.178Z,101137.22
2023-08-12T19:48:40.168Z,101135.19
2023-08-12T19:51:33.203Z,101138.50
2023-08-12T19:54:18.018Z,101135.19
2023-08-12T19:57:09.200Z,101142.47
2023-08-12T19:59:54.231Z,101142.06
2023-08-12T20:02:46.195Z,101134.41
2023-08-12T20:05:51.192Z,101144.75
2023-08-12T20:08:43.184Z,101151.78
2023-08-12T20:11:28.180Z,101144.78
2023-08-12T20:14:19.194Z,101146.41
2023-08-12T20:17:04.543Z,101145.38
2023-08-12T20:19:56.198Z,101147.88
2023-08-12T20:22:59.061Z,101147.47
2023-08-12T20:25:56.209Z,101149.78
2023-08-12T20:28:41.397Z,101147.50
2023-08-12T20:31:33.224Z,101153.69
2023-08-12T20:34:18.277Z,101144.84
2023-08-12T20:37:09.203Z,101152.47
2023-08-12T20:39:55.219Z,101146.44
2023-08-12T20:42:46.223Z,101142.31
2023-08-12T20:45:31.154Z,101164.03
2023-08-12T20:48:23.196Z,101166.91
2023-08-12T20:51:08.016Z,101169.81
2023-08-12T20:54:00.200Z,101171.69
2023-08-12T20:56:45.192Z,101170.63
2023-08-12T20:59:36.210Z,101177.06
2023-08-12T21:02:21.177Z,101177.25
2023-08-12T21:05:13.211Z,101179.53
2023-08-12T21:08:12.224Z,101173.31
2023-08-12T21:10:57.443Z,101171.25
2023-08-12T21:13:49.190Z,101173.75
2023-08-12T21:16:41.270Z,101172.91
2023-08-12T21:19:26.466Z,101172.91
2023-08-12T21:22:19.219Z,101173.94
2023-08-12T21:25:12.236Z,101167.53
2023-08-12T21:28:04.237Z,101174.56
2023-08-12T21:30:49.151Z,101163.59
2023-08-12T21:33:40.206Z,101175.53
2023-08-12T21:36:31.264Z,101169.13
2023-08-12T21:39:16.241Z,101175.75
2023-08-12T21:42:07.238Z,101169.56
2023-08-12T21:44:59.224Z,101176.38
2023-08-12T21:47:44.237Z,101177.00
2023-08-12T21:50:35.229Z,101176.16
2023-08-12T21:53:27.222Z,101177.00
2023-08-12T21:56:18.231Z,101176.75
2023-08-12T21:59:10.224Z,101179.00
2023-08-12T22:02:02.250Z,101187.25
2023-08-12T22:04:53.374Z,101174.03
2023-08-12T22:07:52.243Z,101175.88
2023-08-12T22:10:44.222Z,101169.44
2023-08-12T22:13:29.251Z,101171.69
2023-08-12T22:16:20.263Z,101176.88
2023-08-12T22:19:11.226Z,101182.50
2023-08-12T22:22:02.596Z,101174.03
2023-08-12T22:25:08.221Z,101168.81
2023-08-12T22:27:53.173Z,101161.44
2023-08-12T22:30:44.247Z,101158.47
2023-08-12T22:33:35.240Z,101158.44
2023-08-12T22:36:20.078Z,101162.34
2023-08-12T22:39:12.253Z,101168.09
2023-08-12T22:41:57.396Z,101169.16
2023-08-12T22:44:49.240Z,101169.16
2023-08-12T22:47:34.516Z,101166.94
2023-08-12T22:50:26.293Z,101174.56
2023-08-12T22:53:13.729Z,101167.38
2023-08-12T22:56:05.245Z,101172.69
2023-08-12T22:58:50.402Z,101184.03
2023-08-12T23:01:42.252Z,101183.78
2023-08-12T23:04:33.277Z,101175.31
2023-08-12T23:07:32.242Z,101178.28
2023-08-12T23:10:17.456Z,101181.63
2023-08-12T23:13:09.254Z,101178.78
2023-08-12T23:15:54.236Z,101177.16
2023-08-12T23:18:46.269Z,101177.13
2023-08-12T23:21:31.238Z,101182.22
2023-08-12T23:24:22.258Z,101175.47
2023-08-12T23:27:07.360Z,101177.56
2023-08-12T23:29:59.248Z,101187.28
2023-08-12T23:32:44.453Z,101187.91
2023-08-12T23:35:36.262Z,101185.34
2023-08-12T23:38:21.208Z,101184.78
2023-08-12T23:41:12.253Z,101192.63
2023-08-12T23:44:03.253Z,101206.66
2023-08-12T23:46:56.265Z,101207.41
2023-08-12T23:49:41.196Z,101200.16
2023-08-12T23:52:33.270Z,101202.03
2023-08-12T23:55:18.321Z,101199.78
2023-08-12T23:58:10.307Z,101206.13
